Terminal Aerodrome Forecast
Issued by NWS Blacksburg, VA

Home | Current Version | Previous Version | Text Only | Print | Product List | Glossary On
Versions: 1 2 3 4 5 6 7 8 9 10 11 12
000
FTUS41 KRNK 251721
TAFLYH
TAF
KLYH 251721Z 2518/2618 22005KT P6SM SCT060 BKN250
     FM260000 21003KT P6SM SCT050 BKN120
     FM260900 00000KT 4SM BR BKN080
     FM261300 26007KT P6SM SCT100=

USA.gov is the U.S. government's official web portal to all federal, state and local government web resources and services.